sensor_id;sensor_type;location;lat;lon;timestamp;P1;durP1;ratioP1;P2;durP2;ratioP2
56267;SDS011;42175;46.930;9.532;2022-12-11T00:01:07;9.60;;;4.57;;
56267;SDS011;42175;46.930;9.532;2022-12-11T00:03:37;6.95;;;4.28;;
56267;SDS011;42175;46.930;9.532;2022-12-11T00:06:06;8.68;;;3.97;;
56267;SDS011;42175;46.930;9.532;2022-12-11T00:08:34;7.60;;;4.45;;
56267;SDS011;42175;46.930;9.532;2022-12-11T00:11:00;7.32;;;3.85;;
56267;SDS011;42175;46.930;9.532;2022-12-11T00:13:26;7.95;;;4.32;;
56267;SDS011;42175;46.930;9.532;2022-12-11T00:15:52;6.75;;;3.63;;
56267;SDS011;42175;46.930;9.532;2022-12-11T00:18:18;6.10;;;3.78;;
56267;SDS011;42175;46.930;9.532;2022-12-11T00:20:43;8.75;;;4.70;;
56267;SDS011;42175;46.930;9.532;2022-12-11T00:23:09;6.05;;;3.97;;
56267;SDS011;42175;46.930;9.532;2022-12-11T00:25:40;7.45;;;3.75;;
56267;SDS011;42175;46.930;9.532;2022-12-11T00:28:08;7.18;;;3.95;;
56267;SDS011;42175;46.930;9.532;2022-12-11T00:30:39;7.43;;;4.20;;
56267;SDS011;42175;46.930;9.532;2022-12-11T00:33:05;8.20;;;3.78;;
56267;SDS011;42175;46.930;9.532;2022-12-11T00:35:31;6.63;;;4.18;;
56267;SDS011;42175;46.930;9.532;2022-12-11T00:37:56;5.60;;;3.10;;
56267;SDS011;42175;46.930;9.532;2022-12-11T00:40:22;6.45;;;3.75;;
56267;SDS011;42175;46.930;9.532;2022-12-11T00:42:48;8.77;;;3.95;;
56267;SDS011;42175;46.930;9.532;2022-12-11T00:45:14;5.63;;;3.13;;
56267;SDS011;42175;46.930;9.532;2022-12-11T00:47:40;6.32;;;4.03;;
56267;SDS011;42175;46.930;9.532;2022-12-11T00:50:06;8.35;;;3.58;;
56267;SDS011;42175;46.930;9.532;2022-12-11T00:52:32;5.60;;;3.85;;
56267;SDS011;42175;46.930;9.532;2022-12-11T00:54:58;6.80;;;3.80;;
56267;SDS011;42175;46.930;9.532;2022-12-11T00:57:24;6.00;;;4.05;;
56267;SDS011;42175;46.930;9.532;2022-12-11T00:59:50;7.40;;;3.65;;
56267;SDS011;42175;46.930;9.532;2022-12-11T01:02:16;7.43;;;3.97;;
56267;SDS011;42175;46.930;9.532;2022-12-11T01:04:41;5.60;;;3.50;;
56267;SDS011;42175;46.930;9.532;2022-12-11T01:07:07;9.38;;;3.97;;
56267;SDS011;42175;46.930;9.532;2022-12-11T01:09:33;6.03;;;3.50;;
56267;SDS011;42175;46.930;9.532;2022-12-11T01:12:17;5.57;;;3.60;;
56267;SDS011;42175;46.930;9.532;2022-12-11T01:14:43;5.55;;;3.33;;
56267;SDS011;42175;46.930;9.532;2022-12-11T01:17:08;6.28;;;3.95;;
56267;SDS011;42175;46.930;9.532;2022-12-11T01:19:34;5.07;;;3.30;;
56267;SDS011;42175;46.930;9.532;2022-12-11T01:22:01;5.28;;;3.28;;
56267;SDS011;42175;46.930;9.532;2022-12-11T01:24:27;5.70;;;3.83;;
56267;SDS011;42175;46.930;9.532;2022-12-11T01:26:52;5.97;;;3.40;;
56267;SDS011;42175;46.930;9.532;2022-12-11T01:29:18;7.25;;;4.25;;
56267;SDS011;42175;46.930;9.532;2022-12-11T01:31:44;6.53;;;3.45;;
56267;SDS011;42175;46.930;9.532;2022-12-11T01:34:10;6.90;;;3.33;;
56267;SDS011;42175;46.930;9.532;2022-12-11T01:36:36;5.95;;;3.15;;
56267;SDS011;42175;46.930;9.532;2022-12-11T01:39:02;5.40;;;3.53;;
56267;SDS011;42175;46.930;9.532;2022-12-11T01:41:28;6.20;;;3.38;;
56267;SDS011;42175;46.930;9.532;2022-12-11T01:44:01;6.30;;;4.28;;
56267;SDS011;42175;46.930;9.532;2022-12-11T01:46:30;6.43;;;3.65;;
56267;SDS011;42175;46.930;9.532;2022-12-11T01:48:58;4.45;;;3.17;;
56267;SDS011;42175;46.930;9.532;2022-12-11T01:51:25;5.75;;;3.28;;
56267;SDS011;42175;46.930;9.532;2022-12-11T01:53:58;6.85;;;3.25;;
56267;SDS011;42175;46.930;9.532;2022-12-11T01:56:28;5.53;;;3.08;;
56267;SDS011;42175;46.930;9.532;2022-12-11T01:58:58;4.97;;;2.90;;
56267;SDS011;42175;46.930;9.532;2022-12-11T02:01:32;6.70;;;3.28;;
56267;SDS011;42175;46.930;9.532;2022-12-11T02:04:02;5.20;;;3.28;;
56267;SDS011;42175;46.930;9.532;2022-12-11T02:06:30;5.50;;;3.50;;
56267;SDS011;42175;46.930;9.532;2022-12-11T02:09:04;4.55;;;2.83;;
56267;SDS011;42175;46.930;9.532;2022-12-11T02:11:46;6.80;;;3.35;;
56267;SDS011;42175;46.930;9.532;2022-12-11T02:17:18;3.97;;;2.97;;
56267;SDS011;42175;46.930;9.532;2022-12-11T02:25:19;7.05;;;3.40;;
56267;SDS011;42175;46.930;9.532;2022-12-11T02:30:54;6.95;;;3.30;;
56267;SDS011;42175;46.930;9.532;2022-12-11T02:33:28;4.50;;;2.88;;
56267;SDS011;42175;46.930;9.532;2022-12-11T02:36:20;4.07;;;2.90;;
56267;SDS011;42175;46.930;9.532;2022-12-11T02:38:49;6.30;;;2.92;;
56267;SDS011;42175;46.930;9.532;2022-12-11T02:41:18;4.10;;;2.40;;
56267;SDS011;42175;46.930;9.532;2022-12-11T02:43:45;4.07;;;2.65;;
56267;SDS011;42175;46.930;9.532;2022-12-11T02:46:13;4.13;;;2.83;;
56267;SDS011;42175;46.930;9.532;2022-12-11T02:48:41;5.15;;;2.72;;
56267;SDS011;42175;46.930;9.532;2022-12-11T02:51:08;4.13;;;3.08;;
56267;SDS011;42175;46.930;9.532;2022-12-11T02:53:36;3.65;;;2.70;;
56267;SDS011;42175;46.930;9.532;2022-12-11T02:56:07;3.83;;;2.97;;
56267;SDS011;42175;46.930;9.532;2022-12-11T02:58:42;4.45;;;2.97;;
56267;SDS011;42175;46.930;9.532;2022-12-11T03:01:12;6.72;;;3.22;;
56267;SDS011;42175;46.930;9.532;2022-12-11T03:03:38;4.55;;;2.88;;
56267;SDS011;42175;46.930;9.532;2022-12-11T03:06:04;4.13;;;3.17;;
56267;SDS011;42175;46.930;9.532;2022-12-11T03:08:30;3.85;;;2.90;;
56267;SDS011;42175;46.930;9.532;2022-12-11T03:10:56;4.78;;;2.95;;
56267;SDS011;42175;46.930;9.532;2022-12-11T03:13:23;4.00;;;2.80;;
56267;SDS011;42175;46.930;9.532;2022-12-11T03:26:31;3.75;;;2.83;;
56267;SDS011;42175;46.930;9.532;2022-12-11T03:29:10;5.22;;;2.75;;
56267;SDS011;42175;46.930;9.532;2022-12-11T03:31:42;3.28;;;2.83;;
56267;SDS011;42175;46.930;9.532;2022-12-11T03:34:18;4.15;;;2.70;;
56267;SDS011;42175;46.930;9.532;2022-12-11T03:36:51;4.15;;;3.10;;
56267;SDS011;42175;46.930;9.532;2022-12-11T03:39:29;4.15;;;3.00;;
56267;SDS011;42175;46.930;9.532;2022-12-11T03:41:58;4.90;;;3.50;;
56267;SDS011;42175;46.930;9.532;2022-12-11T03:44:27;3.47;;;3.15;;
56267;SDS011;42175;46.930;9.532;2022-12-11T03:46:56;4.93;;;2.92;;
56267;SDS011;42175;46.930;9.532;2022-12-11T03:49:26;3.55;;;3.00;;
56267;SDS011;42175;46.930;9.532;2022-12-11T03:51:56;3.88;;;2.75;;
56267;SDS011;42175;46.930;9.532;2022-12-11T03:54:23;5.30;;;3.00;;
56267;SDS011;42175;46.930;9.532;2022-12-11T03:56:52;5.80;;;3.35;;
56267;SDS011;42175;46.930;9.532;2022-12-11T03:59:19;4.43;;;3.25;;
56267;SDS011;42175;46.930;9.532;2022-12-11T04:01:45;4.20;;;3.30;;
56267;SDS011;42175;46.930;9.532;2022-12-11T04:04:11;4.70;;;2.90;;
56267;SDS011;42175;46.930;9.532;2022-12-11T04:06:37;4.97;;;2.75;;
56267;SDS011;42175;46.930;9.532;2022-12-11T04:09:02;5.50;;;2.70;;
56267;SDS011;42175;46.930;9.532;2022-12-11T04:11:28;4.05;;;2.88;;
56267;SDS011;42175;46.930;9.532;2022-12-11T04:14:03;3.72;;;2.88;;
56267;SDS011;42175;46.930;9.532;2022-12-11T04:16:49;4.10;;;2.78;;
56267;SDS011;42175;46.930;9.532;2022-12-11T04:19:15;5.80;;;2.90;;
56267;SDS011;42175;46.930;9.532;2022-12-11T04:22:00;3.67;;;2.63;;
56267;SDS011;42175;46.930;9.532;2022-12-11T04:24:46;4.82;;;2.95;;
56267;SDS011;42175;46.930;9.532;2022-12-11T04:27:13;3.80;;;2.58;;
56267;SDS011;42175;46.930;9.532;2022-12-11T04:29:58;4.63;;;3.15;;
56267;SDS011;42175;46.930;9.532;2022-12-11T04:32:24;3.33;;;2.72;;
56267;SDS011;42175;46.930;9.532;2022-12-11T04:34:50;4.22;;;2.92;;
56267;SDS011;42175;46.930;9.532;2022-12-11T04:37:15;3.33;;;2.60;;
56267;SDS011;42175;46.930;9.532;2022-12-11T04:39:41;4.35;;;2.92;;
56267;SDS011;42175;46.930;9.532;2022-12-11T04:42:07;5.70;;;2.70;;
56267;SDS011;42175;46.930;9.532;2022-12-11T04:44:33;6.32;;;2.90;;
56267;SDS011;42175;46.930;9.532;2022-12-11T04:46:58;6.60;;;3.08;;
56267;SDS011;42175;46.930;9.532;2022-12-11T04:49:24;3.35;;;2.70;;
56267;SDS011;42175;46.930;9.532;2022-12-11T04:51:50;5.65;;;2.80;;
56267;SDS011;42175;46.930;9.532;2022-12-11T04:54:16;4.30;;;2.65;;
56267;SDS011;42175;46.930;9.532;2022-12-11T04:56:41;3.50;;;2.63;;
56267;SDS011;42175;46.930;9.532;2022-12-11T04:59:07;2.95;;;2.33;;
56267;SDS011;42175;46.930;9.532;2022-12-11T05:01:33;4.03;;;2.67;;
56267;SDS011;42175;46.930;9.532;2022-12-11T05:03:58;3.28;;;2.67;;
56267;SDS011;42175;46.930;9.532;2022-12-11T05:06:24;3.80;;;2.70;;
56267;SDS011;42175;46.930;9.532;2022-12-11T05:08:50;5.43;;;3.05;;
56267;SDS011;42175;46.930;9.532;2022-12-11T05:11:15;4.07;;;3.10;;
56267;SDS011;42175;46.930;9.532;2022-12-11T05:13:41;4.50;;;2.40;;
56267;SDS011;42175;46.930;9.532;2022-12-11T05:16:08;3.35;;;2.60;;
56267;SDS011;42175;46.930;9.532;2022-12-11T05:18:35;3.65;;;2.60;;
56267;SDS011;42175;46.930;9.532;2022-12-11T05:21:03;3.90;;;2.83;;
56267;SDS011;42175;46.930;9.532;2022-12-11T05:23:31;7.90;;;3.10;;
56267;SDS011;42175;46.930;9.532;2022-12-11T05:25:57;4.10;;;2.55;;
56267;SDS011;42175;46.930;9.532;2022-12-11T05:28:26;7.20;;;2.70;;
56267;SDS011;42175;46.930;9.532;2022-12-11T05:30:54;7.13;;;3.25;;
56267;SDS011;42175;46.930;9.532;2022-12-11T05:33:23;12.23;;;2.90;;
56267;SDS011;42175;46.930;9.532;2022-12-11T05:35:50;8.75;;;2.92;;
56267;SDS011;42175;46.930;9.532;2022-12-11T05:38:16;4.80;;;2.88;;
56267;SDS011;42175;46.930;9.532;2022-12-11T05:40:42;4.45;;;3.33;;
56267;SDS011;42175;46.930;9.532;2022-12-11T05:43:08;3.92;;;2.60;;
56267;SDS011;42175;46.930;9.532;2022-12-11T05:45:34;3.80;;;2.95;;
56267;SDS011;42175;46.930;9.532;2022-12-11T05:48:00;3.92;;;2.70;;
56267;SDS011;42175;46.930;9.532;2022-12-11T05:50:26;3.60;;;2.75;;
56267;SDS011;42175;46.930;9.532;2022-12-11T05:52:51;4.47;;;2.97;;
56267;SDS011;42175;46.930;9.532;2022-12-11T05:55:17;3.92;;;2.80;;
56267;SDS011;42175;46.930;9.532;2022-12-11T05:57:43;6.15;;;2.90;;
56267;SDS011;42175;46.930;9.532;2022-12-11T06:00:10;3.22;;;2.50;;
56267;SDS011;42175;46.930;9.532;2022-12-11T06:02:36;3.72;;;2.40;;
56267;SDS011;42175;46.930;9.532;2022-12-11T06:05:02;3.10;;;2.42;;
56267;SDS011;42175;46.930;9.532;2022-12-11T06:07:28;3.83;;;2.75;;
56267;SDS011;42175;46.930;9.532;2022-12-11T06:09:53;5.70;;;2.60;;
56267;SDS011;42175;46.930;9.532;2022-12-11T06:12:19;3.97;;;2.80;;
56267;SDS011;42175;46.930;9.532;2022-12-11T06:14:45;3.45;;;2.65;;
56267;SDS011;42175;46.930;9.532;2022-12-11T06:17:10;4.03;;;2.63;;
56267;SDS011;42175;46.930;9.532;2022-12-11T06:19:36;3.47;;;2.42;;
56267;SDS011;42175;46.930;9.532;2022-12-11T06:22:02;3.25;;;2.65;;
56267;SDS011;42175;46.930;9.532;2022-12-11T06:24:28;3.58;;;2.97;;
56267;SDS011;42175;46.930;9.532;2022-12-11T06:26:53;4.53;;;2.58;;
56267;SDS011;42175;46.930;9.532;2022-12-11T06:29:19;4.22;;;3.00;;
56267;SDS011;42175;46.930;9.532;2022-12-11T06:31:45;4.38;;;2.53;;
56267;SDS011;42175;46.930;9.532;2022-12-11T06:34:11;3.60;;;2.78;;
56267;SDS011;42175;46.930;9.532;2022-12-11T06:36:37;8.80;;;3.08;;
56267;SDS011;42175;46.930;9.532;2022-12-11T06:39:03;3.35;;;2.20;;
56267;SDS011;42175;46.930;9.532;2022-12-11T06:41:29;6.75;;;2.78;;
56267;SDS011;42175;46.930;9.532;2022-12-11T06:43:55;3.25;;;2.65;;
56267;SDS011;42175;46.930;9.532;2022-12-11T06:46:21;5.85;;;2.15;;
56267;SDS011;42175;46.930;9.532;2022-12-11T06:48:49;4.45;;;2.60;;
56267;SDS011;42175;46.930;9.532;2022-12-11T06:51:15;7.40;;;2.30;;
56267;SDS011;42175;46.930;9.532;2022-12-11T06:53:43;3.10;;;2.53;;
56267;SDS011;42175;46.930;9.532;2022-12-11T06:56:13;4.60;;;2.58;;
56267;SDS011;42175;46.930;9.532;2022-12-11T06:58:40;3.20;;;2.70;;
56267;SDS011;42175;46.930;9.532;2022-12-11T07:01:19;4.28;;;2.20;;
56267;SDS011;42175;46.930;9.532;2022-12-11T07:03:46;3.03;;;2.50;;
56267;SDS011;42175;46.930;9.532;2022-12-11T07:06:13;3.45;;;2.33;;
56267;SDS011;42175;46.930;9.532;2022-12-11T07:08:39;5.07;;;2.15;;
56267;SDS011;42175;46.930;9.532;2022-12-11T07:11:06;4.45;;;2.83;;
56267;SDS011;42175;46.930;9.532;2022-12-11T07:13:36;4.07;;;2.40;;
56267;SDS011;42175;46.930;9.532;2022-12-11T07:16:03;3.15;;;2.45;;
56267;SDS011;42175;46.930;9.532;2022-12-11T07:18:34;4.13;;;2.30;;
56267;SDS011;42175;46.930;9.532;2022-12-11T07:21:00;4.55;;;2.75;;
56267;SDS011;42175;46.930;9.532;2022-12-11T07:23:27;3.90;;;2.45;;
56267;SDS011;42175;46.930;9.532;2022-12-11T07:25:53;4.22;;;2.30;;
56267;SDS011;42175;46.930;9.532;2022-12-11T07:28:19;3.25;;;2.40;;
56267;SDS011;42175;46.930;9.532;2022-12-11T07:30:45;5.78;;;2.58;;
56267;SDS011;42175;46.930;9.532;2022-12-11T07:33:11;3.30;;;2.70;;
56267;SDS011;42175;46.930;9.532;2022-12-11T07:35:36;6.35;;;2.47;;
56267;SDS011;42175;46.930;9.532;2022-12-11T07:38:02;4.00;;;2.50;;
56267;SDS011;42175;46.930;9.532;2022-12-11T07:40:28;7.72;;;2.33;;
56267;SDS011;42175;46.930;9.532;2022-12-11T07:42:54;8.70;;;2.72;;
56267;SDS011;42175;46.930;9.532;2022-12-11T07:45:20;11.30;;;2.65;;
56267;SDS011;42175;46.930;9.532;2022-12-11T07:47:45;13.93;;;5.20;;
56267;SDS011;42175;46.930;9.532;2022-12-11T07:50:11;7.35;;;2.58;;
56267;SDS011;42175;46.930;9.532;2022-12-11T07:52:36;11.32;;;2.50;;
56267;SDS011;42175;46.930;9.532;2022-12-11T07:55:02;4.85;;;2.40;;
56267;SDS011;42175;46.930;9.532;2022-12-11T07:57:28;5.70;;;2.50;;
56267;SDS011;42175;46.930;9.532;2022-12-11T07:59:54;8.10;;;3.10;;
56267;SDS011;42175;46.930;9.532;2022-12-11T08:02:20;4.70;;;2.55;;
56267;SDS011;42175;46.930;9.532;2022-12-11T08:04:46;7.07;;;2.65;;
56267;SDS011;42175;46.930;9.532;2022-12-11T08:07:12;5.45;;;2.25;;
56267;SDS011;42175;46.930;9.532;2022-12-11T08:09:38;4.05;;;2.10;;
56267;SDS011;42175;46.930;9.532;2022-12-11T08:12:04;7.03;;;2.78;;
56267;SDS011;42175;46.930;9.532;2022-12-11T08:14:29;4.00;;;2.70;;
56267;SDS011;42175;46.930;9.532;2022-12-11T08:16:55;5.10;;;2.28;;
56267;SDS011;42175;46.930;9.532;2022-12-11T08:19:22;4.18;;;2.58;;
56267;SDS011;42175;46.930;9.532;2022-12-11T08:21:47;3.47;;;2.70;;
56267;SDS011;42175;46.930;9.532;2022-12-11T08:24:13;4.75;;;2.50;;
56267;SDS011;42175;46.930;9.532;2022-12-11T08:26:40;6.00;;;2.25;;
56267;SDS011;42175;46.930;9.532;2022-12-11T08:29:06;5.40;;;2.70;;
56267;SDS011;42175;46.930;9.532;2022-12-11T08:31:32;2.83;;;2.13;;
56267;SDS011;42175;46.930;9.532;2022-12-11T08:33:58;3.13;;;2.40;;
56267;SDS011;42175;46.930;9.532;2022-12-11T08:36:23;5.05;;;2.40;;
56267;SDS011;42175;46.930;9.532;2022-12-11T08:38:50;3.75;;;2.40;;
56267;SDS011;42175;46.930;9.532;2022-12-11T08:41:17;4.15;;;2.80;;
56267;SDS011;42175;46.930;9.532;2022-12-11T08:43:47;3.65;;;2.55;;
56267;SDS011;42175;46.930;9.532;2022-12-11T08:46:13;4.93;;;2.47;;
56267;SDS011;42175;46.930;9.532;2022-12-11T08:48:40;4.35;;;2.58;;
56267;SDS011;42175;46.930;9.532;2022-12-11T08:51:07;5.30;;;2.53;;
56267;SDS011;42175;46.930;9.532;2022-12-11T08:53:37;3.75;;;2.40;;
56267;SDS011;42175;46.930;9.532;2022-12-11T08:56:04;11.48;;;10.30;;
56267;SDS011;42175;46.930;9.532;2022-12-11T08:58:34;13.68;;;11.82;;
56267;SDS011;42175;46.930;9.532;2022-12-11T09:01:08;14.60;;;12.93;;
56267;SDS011;42175;46.930;9.532;2022-12-11T09:03:35;15.95;;;11.57;;
56267;SDS011;42175;46.930;9.532;2022-12-11T09:06:05;15.98;;;9.65;;
56267;SDS011;42175;46.930;9.532;2022-12-11T09:08:32;15.40;;;7.03;;
56267;SDS011;42175;46.930;9.532;2022-12-11T09:11:05;10.52;;;6.70;;
56267;SDS011;42175;46.930;9.532;2022-12-11T09:13:38;18.48;;;5.78;;
56267;SDS011;42175;46.930;9.532;2022-12-11T09:16:12;18.50;;;5.13;;
56267;SDS011;42175;46.930;9.532;2022-12-11T09:21:08;9.63;;;6.10;;
56267;SDS011;42175;46.930;9.532;2022-12-11T09:23:38;14.23;;;5.80;;
56267;SDS011;42175;46.930;9.532;2022-12-11T09:26:05;8.25;;;5.20;;
56267;SDS011;42175;46.930;9.532;2022-12-11T09:28:32;12.07;;;5.82;;
56267;SDS011;42175;46.930;9.532;2022-12-11T09:30:59;10.35;;;5.38;;
56267;SDS011;42175;46.930;9.532;2022-12-11T09:33:25;12.52;;;5.72;;
56267;SDS011;42175;46.930;9.532;2022-12-11T09:35:59;8.48;;;5.30;;
56267;SDS011;42175;46.930;9.532;2022-12-11T09:38:27;14.65;;;5.50;;
56267;SDS011;42175;46.930;9.532;2022-12-11T09:40:53;13.18;;;5.63;;
56267;SDS011;42175;46.930;9.532;2022-12-11T09:43:40;13.57;;;5.10;;
56267;SDS011;42175;46.930;9.532;2022-12-11T09:46:13;8.00;;;4.90;;
56267;SDS011;42175;46.930;9.532;2022-12-11T09:48:41;10.40;;;5.25;;
56267;SDS011;42175;46.930;9.532;2022-12-11T09:51:16;12.73;;;5.25;;
56267;SDS011;42175;46.930;9.532;2022-12-11T09:53:51;9.00;;;4.90;;
56267;SDS011;42175;46.930;9.532;2022-12-11T09:56:25;11.70;;;6.10;;
56267;SDS011;42175;46.930;9.532;2022-12-11T10:09:31;12.27;;;5.25;;
56267;SDS011;42175;46.930;9.532;2022-12-11T10:17:49;15.05;;;4.63;;
56267;SDS011;42175;46.930;9.532;2022-12-11T10:20:21;11.75;;;5.30;;
56267;SDS011;42175;46.930;9.532;2022-12-11T10:23:00;13.00;;;5.38;;
56267;SDS011;42175;46.930;9.532;2022-12-11T10:25:30;9.32;;;5.47;;
56267;SDS011;42175;46.930;9.532;2022-12-11T10:27:59;10.88;;;6.10;;
56267;SDS011;42175;46.930;9.532;2022-12-11T10:30:38;11.95;;;4.80;;
56267;SDS011;42175;46.930;9.532;2022-12-11T10:35:52;11.32;;;5.93;;
56267;SDS011;42175;46.930;9.532;2022-12-11T10:40:54;12.07;;;5.68;;
56267;SDS011;42175;46.930;9.532;2022-12-11T10:46:28;24.70;;;13.63;;
56267;SDS011;42175;46.930;9.532;2022-12-11T10:48:57;12.98;;;7.40;;
56267;SDS011;42175;46.930;9.532;2022-12-11T10:51:25;14.75;;;6.20;;
56267;SDS011;42175;46.930;9.532;2022-12-11T10:54:17;9.93;;;5.70;;
56267;SDS011;42175;46.930;9.532;2022-12-11T10:57:02;9.40;;;6.00;;
56267;SDS011;42175;46.930;9.532;2022-12-11T11:02:01;13.80;;;6.03;;
56267;SDS011;42175;46.930;9.532;2022-12-11T11:07:10;17.70;;;5.03;;
56267;SDS011;42175;46.930;9.532;2022-12-11T11:09:42;8.02;;;5.05;;
56267;SDS011;42175;46.930;9.532;2022-12-11T11:12:18;11.25;;;5.68;;
56267;SDS011;42175;46.930;9.532;2022-12-11T11:14:58;21.92;;;5.38;;
56267;SDS011;42175;46.930;9.532;2022-12-11T11:17:30;11.55;;;5.63;;
56267;SDS011;42175;46.930;9.532;2022-12-11T11:19:58;20.33;;;5.18;;
56267;SDS011;42175;46.930;9.532;2022-12-11T11:22:25;11.00;;;6.10;;
56267;SDS011;42175;46.930;9.532;2022-12-11T11:24:55;18.58;;;6.97;;
56267;SDS011;42175;46.930;9.532;2022-12-11T11:27:28;14.25;;;6.05;;
56267;SDS011;42175;46.930;9.532;2022-12-11T11:30:33;13.65;;;5.95;;
56267;SDS011;42175;46.930;9.532;2022-12-11T11:33:13;12.05;;;5.35;;
56267;SDS011;42175;46.930;9.532;2022-12-11T11:35:59;8.88;;;5.05;;
56267;SDS011;42175;46.930;9.532;2022-12-11T11:38:29;11.00;;;4.57;;
56267;SDS011;42175;46.930;9.532;2022-12-11T11:43:43;11.50;;;5.07;;
56267;SDS011;42175;46.930;9.532;2022-12-11T11:53:39;10.00;;;4.95;;
56267;SDS011;42175;46.930;9.532;2022-12-11T11:58:44;14.30;;;6.78;;
56267;SDS011;42175;46.930;9.532;2022-12-11T12:01:26;10.05;;;6.05;;
56267;SDS011;42175;46.930;9.532;2022-12-11T12:03:52;19.30;;;5.50;;
56267;SDS011;42175;46.930;9.532;2022-12-11T12:11:43;10.80;;;5.03;;
56267;SDS011;42175;46.930;9.532;2022-12-11T12:14:23;12.60;;;5.18;;
56267;SDS011;42175;46.930;9.532;2022-12-11T12:17:30;12.15;;;5.10;;
56267;SDS011;42175;46.930;9.532;2022-12-11T12:22:37;14.35;;;5.85;;
56267;SDS011;42175;46.930;9.532;2022-12-11T12:30:51;11.98;;;5.28;;
56267;SDS011;42175;46.930;9.532;2022-12-11T12:36:33;13.32;;;5.78;;
56267;SDS011;42175;46.930;9.532;2022-12-11T12:42:14;16.98;;;5.60;;
56267;SDS011;42175;46.930;9.532;2022-12-11T12:47:18;37.33;;;8.77;;
56267;SDS011;42175;46.930;9.532;2022-12-11T12:49:46;36.17;;;10.60;;
56267;SDS011;42175;46.930;9.532;2022-12-11T12:52:35;39.75;;;11.15;;
56267;SDS011;42175;46.930;9.532;2022-12-11T12:57:37;44.47;;;11.70;;
56267;SDS011;42175;46.930;9.532;2022-12-11T13:00:06;37.53;;;10.48;;
56267;SDS011;42175;46.930;9.532;2022-12-11T13:02:36;48.10;;;10.82;;
56267;SDS011;42175;46.930;9.532;2022-12-11T13:05:23;38.20;;;9.85;;
56267;SDS011;42175;46.930;9.532;2022-12-11T13:07:52;29.75;;;9.45;;
56267;SDS011;42175;46.930;9.532;2022-12-11T13:10:22;32.70;;;10.00;;
56267;SDS011;42175;46.930;9.532;2022-12-11T13:12:53;27.38;;;8.98;;
56267;SDS011;42175;46.930;9.532;2022-12-11T13:15:36;26.60;;;8.68;;
56267;SDS011;42175;46.930;9.532;2022-12-11T13:20:58;42.20;;;9.98;;
56267;SDS011;42175;46.930;9.532;2022-12-11T13:23:26;34.03;;;10.32;;
56267;SDS011;42175;46.930;9.532;2022-12-11T13:26:00;35.88;;;9.50;;
56267;SDS011;42175;46.930;9.532;2022-12-11T13:33:22;25.25;;;8.15;;
56267;SDS011;42175;46.930;9.532;2022-12-11T13:35:48;31.38;;;9.57;;
56267;SDS011;42175;46.930;9.532;2022-12-11T13:38:36;77.20;;;19.05;;
56267;SDS011;42175;46.930;9.532;2022-12-11T13:41:08;67.10;;;17.38;;
56267;SDS011;42175;46.930;9.532;2022-12-11T13:43:35;70.95;;;17.88;;
56267;SDS011;42175;46.930;9.532;2022-12-11T13:46:04;50.80;;;14.85;;
56267;SDS011;42175;46.930;9.532;2022-12-11T13:48:46;50.10;;;14.68;;
56267;SDS011;42175;46.930;9.532;2022-12-11T13:51:18;46.92;;;13.38;;
56267;SDS011;42175;46.930;9.532;2022-12-11T13:53:46;40.97;;;11.90;;
56267;SDS011;42175;46.930;9.532;2022-12-11T13:56:15;43.83;;;12.85;;
56267;SDS011;42175;46.930;9.532;2022-12-11T13:58:42;38.40;;;10.90;;
56267;SDS011;42175;46.930;9.532;2022-12-11T14:01:13;36.88;;;11.25;;
56267;SDS011;42175;46.930;9.532;2022-12-11T14:03:51;42.10;;;11.07;;
56267;SDS011;42175;46.930;9.532;2022-12-11T14:06:22;28.40;;;9.65;;
56267;SDS011;42175;46.930;9.532;2022-12-11T14:08:50;27.73;;;11.05;;
56267;SDS011;42175;46.930;9.532;2022-12-11T14:11:26;29.40;;;10.57;;
56267;SDS011;42175;46.930;9.532;2022-12-11T14:13:56;22.77;;;9.25;;
56267;SDS011;42175;46.930;9.532;2022-12-11T14:16:24;13.18;;;6.43;;
56267;SDS011;42175;46.930;9.532;2022-12-11T14:18:51;10.20;;;4.85;;
56267;SDS011;42175;46.930;9.532;2022-12-11T14:21:19;8.13;;;4.88;;
56267;SDS011;42175;46.930;9.532;2022-12-11T14:23:54;25.73;;;7.65;;
56267;SDS011;42175;46.930;9.532;2022-12-11T14:26:25;16.42;;;6.40;;
56267;SDS011;42175;46.930;9.532;2022-12-11T14:28:53;18.13;;;6.22;;
56267;SDS011;42175;46.930;9.532;2022-12-11T14:31:35;22.08;;;6.90;;
56267;SDS011;42175;46.930;9.532;2022-12-11T14:34:11;30.45;;;8.15;;
56267;SDS011;42175;46.930;9.532;2022-12-11T14:36:45;20.73;;;8.85;;
56267;SDS011;42175;46.930;9.532;2022-12-11T14:39:13;24.83;;;12.35;;
56267;SDS011;42175;46.930;9.532;2022-12-11T14:41:48;24.45;;;12.32;;
56267;SDS011;42175;46.930;9.532;2022-12-11T14:44:28;28.98;;;13.02;;
56267;SDS011;42175;46.930;9.532;2022-12-11T14:47:01;27.20;;;12.70;;
56267;SDS011;42175;46.930;9.532;2022-12-11T14:52:38;32.25;;;12.93;;
56267;SDS011;42175;46.930;9.532;2022-12-11T14:55:17;23.75;;;12.63;;
56267;SDS011;42175;46.930;9.532;2022-12-11T14:57:48;26.27;;;14.15;;
56267;SDS011;42175;46.930;9.532;2022-12-11T15:00:30;25.05;;;12.30;;
56267;SDS011;42175;46.930;9.532;2022-12-11T15:05:31;28.92;;;13.65;;
56267;SDS011;42175;46.930;9.532;2022-12-11T15:10:30;24.88;;;12.57;;
56267;SDS011;42175;46.930;9.532;2022-12-11T15:13:05;30.20;;;13.18;;
56267;SDS011;42175;46.930;9.532;2022-12-11T15:15:32;27.20;;;12.27;;
56267;SDS011;42175;46.930;9.532;2022-12-11T15:18:12;25.70;;;12.45;;
56267;SDS011;42175;46.930;9.532;2022-12-11T15:20:48;21.98;;;11.60;;
56267;SDS011;42175;46.930;9.532;2022-12-11T15:23:16;21.40;;;12.07;;
56267;SDS011;42175;46.930;9.532;2022-12-11T15:25:48;23.33;;;12.73;;
56267;SDS011;42175;46.930;9.532;2022-12-11T15:28:26;25.30;;;12.65;;
56267;SDS011;42175;46.930;9.532;2022-12-11T15:30:55;20.65;;;11.45;;
56267;SDS011;42175;46.930;9.532;2022-12-11T15:33:23;23.27;;;12.43;;
56267;SDS011;42175;46.930;9.532;2022-12-11T15:38:38;23.08;;;11.77;;
56267;SDS011;42175;46.930;9.532;2022-12-11T15:41:16;26.88;;;11.27;;
56267;SDS011;42175;46.930;9.532;2022-12-11T15:43:48;20.33;;;11.20;;
56267;SDS011;42175;46.930;9.532;2022-12-11T15:46:16;24.75;;;12.10;;
56267;SDS011;42175;46.930;9.532;2022-12-11T15:48:42;22.27;;;11.93;;
56267;SDS011;42175;46.930;9.532;2022-12-11T15:51:08;19.83;;;10.70;;
56267;SDS011;42175;46.930;9.532;2022-12-11T15:53:34;20.50;;;10.20;;
56267;SDS011;42175;46.930;9.532;2022-12-11T15:56:00;25.38;;;11.75;;
56267;SDS011;42175;46.930;9.532;2022-12-11T15:58:26;21.92;;;11.75;;
56267;SDS011;42175;46.930;9.532;2022-12-11T16:00:52;22.73;;;11.13;;
56267;SDS011;42175;46.930;9.532;2022-12-11T16:03:19;27.48;;;12.43;;
56267;SDS011;42175;46.930;9.532;2022-12-11T16:05:46;75.00;;;35.63;;
56267;SDS011;42175;46.930;9.532;2022-12-11T16:08:14;187.45;;;89.65;;
56267;SDS011;42175;46.930;9.532;2022-12-11T16:10:42;152.77;;;71.35;;
56267;SDS011;42175;46.930;9.532;2022-12-11T16:13:10;150.55;;;68.65;;
56267;SDS011;42175;46.930;9.532;2022-12-11T16:15:37;139.95;;;67.35;;
56267;SDS011;42175;46.930;9.532;2022-12-11T16:18:09;127.70;;;58.42;;
56267;SDS011;42175;46.930;9.532;2022-12-11T16:20:36;122.47;;;54.85;;
56267;SDS011;42175;46.930;9.532;2022-12-11T16:23:04;107.80;;;50.83;;
56267;SDS011;42175;46.930;9.532;2022-12-11T16:25:30;96.18;;;48.33;;
56267;SDS011;42175;46.930;9.532;2022-12-11T16:27:57;91.55;;;41.10;;
56267;SDS011;42175;46.930;9.532;2022-12-11T16:30:23;88.93;;;43.60;;
56267;SDS011;42175;46.930;9.532;2022-12-11T16:32:50;94.32;;;43.97;;
56267;SDS011;42175;46.930;9.532;2022-12-11T16:35:16;94.13;;;41.40;;
56267;SDS011;42175;46.930;9.532;2022-12-11T16:37:42;86.38;;;39.50;;
56267;SDS011;42175;46.930;9.532;2022-12-11T16:40:09;95.93;;;39.85;;
56267;SDS011;42175;46.930;9.532;2022-12-11T16:42:36;85.30;;;39.53;;
56267;SDS011;42175;46.930;9.532;2022-12-11T16:45:06;78.63;;;37.83;;